createdAt,value
2017-07-23T00:01:06.117Z,61
2017-07-23T00:02:14.178Z,61
2017-07-23T00:03:22.265Z,61
2017-07-23T00:04:30.353Z,61
2017-07-23T00:05:38.441Z,61
2017-07-23T00:07:54.616Z,61
2017-07-23T00:10:10.794Z,61
2017-07-23T00:11:18.885Z,61
2017-07-23T00:12:26.971Z,61
2017-07-23T00:14:43.150Z,61
2017-07-23T00:15:51.238Z,61
2017-07-23T00:16:59.327Z,61
2017-07-23T00:18:07.415Z,61
2017-07-23T00:19:15.502Z,61
2017-07-23T00:20:23.590Z,61
2017-07-23T00:21:31.682Z,61
2017-07-23T00:22:39.937Z,61
2017-07-23T00:23:47.862Z,61
2017-07-23T00:24:55.945Z,61
2017-07-23T00:26:04.086Z,61
2017-07-23T00:27:12.128Z,61
2017-07-23T00:28:20.217Z,61
2017-07-23T00:29:28.306Z,61
2017-07-23T00:30:36.397Z,61
2017-07-23T00:31:44.496Z,61
2017-07-23T00:32:52.570Z,61
2017-07-23T00:34:00.659Z,61
2017-07-23T00:35:08.747Z,61
2017-07-23T00:36:16.837Z,61
2017-07-23T00:37:24.925Z,61
2017-07-23T00:38:33.013Z,61
2017-07-23T00:39:41.101Z,61
2017-07-23T00:40:49.188Z,61
2017-07-23T00:41:57.277Z,61
2017-07-23T00:43:05.439Z,61
2017-07-23T00:44:13.462Z,61
2017-07-23T00:45:21.543Z,61
2017-07-23T00:46:29.631Z,61
2017-07-23T00:47:37.721Z,61
2017-07-23T00:48:45.810Z,61
2017-07-23T00:49:53.905Z,61
2017-07-23T00:51:01.994Z,61
2017-07-23T00:52:10.078Z,61
2017-07-23T00:53:18.171Z,61
2017-07-23T00:54:26.374Z,61
2017-07-23T00:55:34.448Z,61
2017-07-23T00:56:42.540Z,61
2017-07-23T00:57:50.609Z,61
2017-07-23T00:58:58.718Z,61
2017-07-23T01:00:06.736Z,61
2017-07-23T01:01:14.791Z,61
2017-07-23T01:02:22.879Z,61
2017-07-23T01:03:30.967Z,61
2017-07-23T01:04:39.055Z,61
2017-07-23T01:05:47.145Z,61
2017-07-23T01:06:55.238Z,61
2017-07-23T01:08:03.321Z,61
2017-07-23T01:09:11.410Z,61
2017-07-23T01:10:19.498Z,61
2017-07-23T01:11:27.586Z,61
2017-07-23T01:12:35.674Z,61
2017-07-23T01:13:43.764Z,61
2017-07-23T01:14:51.854Z,61
2017-07-23T01:15:59.941Z,61
2017-07-23T01:17:08.038Z,61
2017-07-23T01:18:16.118Z,61
2017-07-23T01:19:24.206Z,61
2017-07-23T01:20:32.294Z,61
2017-07-23T01:21:40.382Z,61
2017-07-23T01:22:48.471Z,61
2017-07-23T01:23:56.562Z,61
2017-07-23T01:25:04.647Z,61
2017-07-23T01:26:12.737Z,61
2017-07-23T01:27:20.851Z,61
2017-07-23T01:28:28.916Z,61
2017-07-23T01:29:37.004Z,60
2017-07-23T01:30:45.091Z,61
2017-07-23T01:31:53.179Z,61
2017-07-23T01:33:01.268Z,61
2017-07-23T01:34:09.453Z,61
2017-07-23T01:35:17.446Z,61
2017-07-23T01:36:25.534Z,61
2017-07-23T01:37:33.622Z,61
2017-07-23T01:38:41.711Z,61
2017-07-23T01:39:49.798Z,61
2017-07-23T01:40:57.885Z,61
2017-07-23T01:42:05.973Z,61
2017-07-23T01:43:14.063Z,61
2017-07-23T01:44:22.152Z,61
2017-07-23T01:45:30.241Z,61
2017-07-23T01:46:38.329Z,61
2017-07-23T01:47:46.418Z,61
2017-07-23T01:48:54.506Z,61
2017-07-23T01:50:02.595Z,61
2017-07-23T01:51:10.773Z,61
2017-07-23T01:52:18.763Z,61
2017-07-23T01:53:26.859Z,61
2017-07-23T01:54:34.948Z,61
2017-07-23T01:55:43.037Z,61
2017-07-23T01:56:51.126Z,61
2017-07-23T01:57:59.213Z,61
2017-07-23T01:59:07.301Z,61
2017-07-23T02:00:15.388Z,61
2017-07-23T02:01:23.482Z,61
2017-07-23T02:02:31.571Z,61
2017-07-23T02:03:39.659Z,61
2017-07-23T02:04:47.747Z,61
2017-07-23T02:05:55.838Z,62
2017-07-23T02:07:03.927Z,61
2017-07-23T02:08:12.096Z,61
2017-07-23T02:09:20.110Z,61
2017-07-23T02:10:28.201Z,61
2017-07-23T02:11:36.287Z,61
2017-07-23T02:12:44.379Z,61
2017-07-23T02:13:52.467Z,61
2017-07-23T02:15:00.564Z,61
2017-07-23T02:16:08.641Z,61
2017-07-23T02:17:16.731Z,61
2017-07-23T02:18:24.819Z,61
2017-07-23T02:19:32.906Z,61
2017-07-23T02:20:40.995Z,61
2017-07-23T02:21:49.081Z,61
2017-07-23T02:22:57.171Z,61
2017-07-23T02:24:05.260Z,61
2017-07-23T02:25:13.372Z,61
2017-07-23T02:26:21.438Z,61
2017-07-23T02:27:29.526Z,61
2017-07-23T02:28:37.613Z,61
2017-07-23T02:29:45.701Z,61
2017-07-23T02:30:53.794Z,61
2017-07-23T02:32:01.879Z,61
2017-07-23T02:33:09.968Z,61
2017-07-23T02:34:18.057Z,61
2017-07-23T02:35:26.148Z,61
2017-07-23T02:36:34.234Z,61
2017-07-23T02:37:42.320Z,61
2017-07-23T02:38:50.407Z,61
2017-07-23T02:39:58.498Z,60
2017-07-23T02:41:06.586Z,61
2017-07-23T02:42:14.771Z,61
2017-07-23T02:43:22.760Z,61
2017-07-23T02:44:30.851Z,61
2017-07-23T02:45:38.940Z,60
2017-07-23T02:46:47.051Z,61
2017-07-23T02:47:55.116Z,60
2017-07-23T02:49:03.203Z,60
2017-07-23T02:50:11.291Z,60
2017-07-23T02:51:19.387Z,60
2017-07-23T02:52:27.476Z,60
2017-07-23T02:53:35.567Z,61
2017-07-23T02:54:43.655Z,61
2017-07-23T02:55:51.742Z,61
2017-07-23T02:56:59.831Z,60
2017-07-23T02:58:07.919Z,60
2017-07-23T02:59:16.097Z,60
2017-07-23T03:00:24.097Z,61
2017-07-23T03:01:32.185Z,60
2017-07-23T03:02:40.275Z,61
2017-07-23T03:03:48.385Z,60
2017-07-23T03:04:56.452Z,60
2017-07-23T03:06:04.539Z,60
2017-07-23T03:07:12.629Z,60
2017-07-23T03:08:20.716Z,60
2017-07-23T03:09:28.806Z,60
2017-07-23T03:10:36.895Z,60
2017-07-23T03:11:44.985Z,60
2017-07-23T03:12:53.074Z,60
2017-07-23T03:14:01.160Z,60
2017-07-23T03:15:09.255Z,60
2017-07-23T03:16:17.391Z,60
2017-07-23T03:17:25.454Z,60
2017-07-23T03:18:33.522Z,60
2017-07-23T03:19:41.612Z,60
2017-07-23T03:20:49.702Z,60
2017-07-23T03:21:57.787Z,60
2017-07-23T03:23:05.876Z,60
2017-07-23T03:24:13.964Z,60
2017-07-23T03:25:22.052Z,60
2017-07-23T03:26:30.142Z,60
2017-07-23T03:27:38.231Z,60
2017-07-23T03:28:46.319Z,60
2017-07-23T03:29:54.408Z,60
2017-07-23T03:31:02.498Z,60
2017-07-23T03:32:10.585Z,60
2017-07-23T03:33:18.721Z,60
2017-07-23T03:34:26.772Z,60
2017-07-23T03:35:34.858Z,60
2017-07-23T03:36:42.946Z,60
2017-07-23T03:37:51.036Z,60
2017-07-23T03:38:59.125Z,60
2017-07-23T03:40:07.215Z,60
2017-07-23T03:41:15.302Z,60
2017-07-23T03:42:23.391Z,60
2017-07-23T03:43:31.478Z,60
2017-07-23T03:44:39.592Z,60
2017-07-23T03:45:47.656Z,60
2017-07-23T03:46:55.744Z,60
2017-07-23T03:48:03.833Z,60
2017-07-23T03:49:11.921Z,60
2017-07-23T03:50:20.055Z,60
2017-07-23T03:51:28.098Z,60
2017-07-23T03:52:36.192Z,60
2017-07-23T03:53:44.273Z,60
2017-07-23T03:54:52.363Z,60
2017-07-23T03:56:00.452Z,60
2017-07-23T03:57:08.541Z,60
2017-07-23T03:58:16.692Z,60
2017-07-23T03:59:24.723Z,60
2017-07-23T04:00:32.813Z,60
2017-07-23T04:01:40.900Z,60
2017-07-23T04:02:48.987Z,60
2017-07-23T04:03:57.077Z,60
2017-07-23T04:05:05.167Z,60
2017-07-23T04:06:13.254Z,60
2017-07-23T04:07:21.420Z,60
2017-07-23T04:08:29.430Z,60
2017-07-23T04:09:37.546Z,60
2017-07-23T04:10:45.609Z,60
2017-07-23T04:11:53.699Z,60
2017-07-23T04:13:01.790Z,60
2017-07-23T04:14:09.872Z,60
2017-07-23T04:15:17.961Z,60
2017-07-23T04:16:26.051Z,60
2017-07-23T04:17:34.139Z,60
2017-07-23T04:18:42.230Z,60
2017-07-23T04:19:50.317Z,60
2017-07-23T04:20:58.405Z,60
2017-07-23T04:22:06.492Z,60
2017-07-23T04:23:14.582Z,60
2017-07-23T04:24:22.713Z,60
2017-07-23T04:25:30.758Z,60
2017-07-23T04:26:38.849Z,60
2017-07-23T04:27:46.937Z,60
2017-07-23T04:28:55.026Z,60
2017-07-23T04:30:03.113Z,60
2017-07-23T04:31:11.225Z,60
2017-07-23T04:32:19.289Z,60
2017-07-23T04:33:27.378Z,60
2017-07-23T04:34:35.468Z,60
2017-07-23T04:35:43.557Z,60
2017-07-23T04:36:51.644Z,60
2017-07-23T04:37:59.733Z,60
2017-07-23T04:39:07.822Z,60
2017-07-23T04:40:15.909Z,60
2017-07-23T04:41:23.998Z,60
2017-07-23T04:42:32.084Z,60
2017-07-23T04:43:40.174Z,60
2017-07-23T04:44:48.262Z,60
2017-07-23T04:45:56.350Z,60
2017-07-23T04:47:04.443Z,60
2017-07-23T04:48:12.558Z,60
2017-07-23T04:49:20.620Z,60
2017-07-23T04:50:28.709Z,60
2017-07-23T04:51:36.799Z,60
2017-07-23T04:52:44.888Z,60
2017-07-23T04:53:52.975Z,60
2017-07-23T04:55:01.063Z,60
2017-07-23T04:56:09.152Z,60
2017-07-23T04:57:17.242Z,60
2017-07-23T04:58:25.416Z,60
2017-07-23T04:59:33.416Z,60
2017-07-23T05:00:41.529Z,60
2017-07-23T05:01:49.593Z,60
2017-07-23T05:02:57.682Z,60
2017-07-23T05:04:05.772Z,60
2017-07-23T05:05:13.860Z,60
2017-07-23T05:06:21.948Z,60
2017-07-23T05:07:30.038Z,60
2017-07-23T05:08:38.123Z,60
2017-07-23T05:09:46.212Z,60
2017-07-23T05:10:54.298Z,60
2017-07-23T05:12:02.391Z,60
2017-07-23T05:13:10.482Z,60
2017-07-23T05:14:18.566Z,60
2017-07-23T05:15:26.697Z,60
2017-07-23T05:16:34.743Z,60
2017-07-23T05:17:42.834Z,60
2017-07-23T05:18:50.920Z,60
2017-07-23T05:19:59.007Z,60
2017-07-23T05:21:07.097Z,60
2017-07-23T05:22:15.186Z,60
2017-07-23T05:23:23.274Z,60
2017-07-23T05:24:31.366Z,60
2017-07-23T05:25:39.476Z,60
2017-07-23T05:26:47.540Z,60
2017-07-23T05:27:55.630Z,60
2017-07-23T05:29:03.717Z,60
2017-07-23T05:30:11.804Z,60
2017-07-23T05:31:19.892Z,60
2017-07-23T05:32:28.031Z,60
2017-07-23T05:33:36.070Z,60
2017-07-23T05:34:44.159Z,60
2017-07-23T05:35:52.249Z,60
2017-07-23T05:37:00.336Z,60
2017-07-23T05:38:08.424Z,60
2017-07-23T05:39:16.511Z,60
2017-07-23T05:40:24.607Z,60
2017-07-23T05:41:32.695Z,60
2017-07-23T05:42:40.785Z,60
2017-07-23T05:43:48.873Z,60
2017-07-23T05:44:56.960Z,60
2017-07-23T05:46:05.052Z,60
2017-07-23T05:47:13.138Z,60
2017-07-23T05:48:21.226Z,60
2017-07-23T05:49:29.314Z,60
2017-07-23T05:50:37.402Z,60
2017-07-23T05:51:45.492Z,60
2017-07-23T05:52:53.581Z,60
2017-07-23T05:54:01.669Z,60
2017-07-23T05:55:09.757Z,60
2017-07-23T05:56:17.844Z,60
2017-07-23T05:57:25.939Z,60
2017-07-23T05:58:34.027Z,60
2017-07-23T05:59:42.116Z,60
2017-07-23T06:00:50.206Z,60
2017-07-23T06:01:58.292Z,60
2017-07-23T06:03:06.394Z,60
2017-07-23T06:04:14.471Z,60
2017-07-23T06:05:22.559Z,60
2017-07-23T06:06:30.713Z,60
2017-07-23T06:07:38.734Z,60
2017-07-23T06:08:46.824Z,60
2017-07-23T06:09:54.911Z,60
2017-07-23T06:11:03.001Z,60
2017-07-23T06:12:11.090Z,60
2017-07-23T06:13:19.178Z,60
2017-07-23T06:14:27.266Z,60
2017-07-23T06:15:35.354Z,60
2017-07-23T06:16:43.440Z,60
2017-07-23T06:17:51.531Z,60
2017-07-23T06:18:59.620Z,60
2017-07-23T06:20:07.710Z,60
2017-07-23T06:21:15.797Z,60
2017-07-23T06:22:23.886Z,60
2017-07-23T06:23:31.998Z,60
2017-07-23T06:24:40.063Z,60
2017-07-23T06:25:48.151Z,60
2017-07-23T06:26:56.240Z,60
2017-07-23T06:28:04.328Z,60
2017-07-23T06:29:12.420Z,60
2017-07-23T06:30:20.508Z,60
2017-07-23T06:31:28.594Z,60
2017-07-23T06:32:36.682Z,60
2017-07-23T06:33:44.772Z,60
2017-07-23T06:34:52.864Z,60
2017-07-23T06:36:00.946Z,60
2017-07-23T06:37:09.036Z,60
2017-07-23T06:38:17.125Z,60
2017-07-23T06:39:25.218Z,60
2017-07-23T06:40:33.321Z,60
2017-07-23T06:41:41.396Z,60
2017-07-23T06:42:49.484Z,60
2017-07-23T06:43:57.572Z,60
2017-07-23T06:45:05.660Z,60
2017-07-23T06:46:13.748Z,60
2017-07-23T06:47:21.837Z,61
2017-07-23T06:48:29.928Z,60
2017-07-23T06:49:38.017Z,60
2017-07-23T06:50:46.106Z,61
2017-07-23T06:51:54.193Z,61
2017-07-23T06:53:02.280Z,61
2017-07-23T06:54:10.372Z,60
2017-07-23T06:55:18.459Z,60
2017-07-23T06:56:26.546Z,61
2017-07-23T06:57:34.679Z,61
2017-07-23T06:58:42.724Z,61
2017-07-23T06:59:50.813Z,61
2017-07-23T07:00:58.904Z,60
2017-07-23T07:02:06.992Z,60
2017-07-23T07:03:15.080Z,60
2017-07-23T07:04:23.168Z,60
2017-07-23T07:05:31.258Z,60
2017-07-23T07:06:39.347Z,60
2017-07-23T07:07:47.437Z,60
2017-07-23T07:08:55.525Z,61
2017-07-23T07:10:03.614Z,60
2017-07-23T07:11:11.704Z,61
2017-07-23T07:12:19.792Z,61
2017-07-23T07:13:27.891Z,61
2017-07-23T07:14:36.097Z,61
2017-07-23T07:15:44.076Z,61
2017-07-23T07:16:52.869Z,61
2017-07-23T07:18:00.255Z,61
2017-07-23T07:19:08.341Z,61
2017-07-23T07:20:16.430Z,61
2017-07-23T07:21:24.517Z,61
2017-07-23T07:22:32.606Z,61
2017-07-23T07:23:40.695Z,62
2017-07-23T07:24:48.784Z,61
2017-07-23T07:25:56.871Z,61
2017-07-23T07:27:04.959Z,61
2017-07-23T07:28:13.048Z,61
2017-07-23T07:29:21.135Z,61
2017-07-23T07:30:29.230Z,61
2017-07-23T07:31:37.362Z,61
2017-07-23T07:32:45.409Z,61
2017-07-23T07:33:53.520Z,61
2017-07-23T07:35:01.580Z,62
2017-07-23T07:36:09.672Z,61
2017-07-23T07:37:17.763Z,61
2017-07-23T07:38:25.849Z,61
2017-07-23T07:39:33.935Z,62
2017-07-23T07:40:42.025Z,61
2017-07-23T07:41:50.119Z,62
2017-07-23T07:42:58.206Z,61
2017-07-23T07:44:06.298Z,62
2017-07-23T07:45:14.381Z,62
2017-07-23T07:46:22.470Z,62
2017-07-23T07:47:30.558Z,62
2017-07-23T07:48:38.652Z,62
2017-07-23T07:49:46.738Z,62
2017-07-23T07:50:54.823Z,61
2017-07-23T07:52:02.914Z,62
2017-07-23T07:53:11.001Z,62
2017-07-23T07:54:19.090Z,62
2017-07-23T07:55:27.177Z,62
2017-07-23T07:56:35.265Z,62
2017-07-23T07:57:43.354Z,62
2017-07-23T07:58:51.442Z,61
2017-07-23T07:59:59.529Z,62
2017-07-23T08:01:07.619Z,62
2017-07-23T08:02:15.707Z,62
2017-07-23T08:03:23.796Z,62
2017-07-23T08:04:31.886Z,62
2017-07-23T08:05:40.036Z,62
2017-07-23T08:06:48.058Z,62
2017-07-23T08:07:56.146Z,62
2017-07-23T08:09:04.239Z,62
2017-07-23T08:10:12.328Z,62
2017-07-23T08:11:20.420Z,62
2017-07-23T08:12:28.506Z,62
2017-07-23T08:13:36.593Z,61
2017-07-23T08:14:44.681Z,61
2017-07-23T08:15:52.909Z,61
2017-07-23T08:17:01.081Z,61
2017-07-23T08:18:09.114Z,61
2017-07-23T08:19:17.190Z,62
2017-07-23T08:20:25.242Z,62
2017-07-23T08:21:33.431Z,62
2017-07-23T08:22:42.119Z,62
2017-07-23T08:23:49.508Z,62
2017-07-23T08:24:57.599Z,62
2017-07-23T08:26:05.802Z,62
2017-07-23T08:27:13.904Z,62
2017-07-23T08:28:22.057Z,62
2017-07-23T08:29:30.186Z,61
2017-07-23T08:30:38.194Z,61
2017-07-23T08:31:46.298Z,61
2017-07-23T08:32:54.110Z,61
2017-07-23T08:34:02.187Z,61
2017-07-23T08:35:10.294Z,61
2017-07-23T08:36:18.363Z,61
2017-07-23T08:37:26.452Z,61
2017-07-23T08:38:34.541Z,61
2017-07-23T08:39:42.684Z,61
2017-07-23T08:40:50.719Z,61
2017-07-23T08:41:58.807Z,61
2017-07-23T08:43:07.013Z,61
2017-07-23T08:44:14.981Z,61
2017-07-23T08:45:23.070Z,60
2017-07-23T08:46:31.157Z,60
2017-07-23T08:47:39.246Z,60
2017-07-23T08:48:47.334Z,60
2017-07-23T08:49:55.421Z,60
2017-07-23T08:51:03.511Z,60
2017-07-23T08:52:11.601Z,60
2017-07-23T08:53:19.694Z,60
2017-07-23T08:54:27.773Z,59
2017-07-23T08:55:35.859Z,59
2017-07-23T08:56:43.993Z,60
2017-07-23T08:57:52.037Z,60
2017-07-23T08:59:00.152Z,60
2017-07-23T09:00:08.212Z,59
2017-07-23T09:01:16.302Z,59
2017-07-23T09:02:24.389Z,59
2017-07-23T09:03:32.477Z,59
2017-07-23T09:04:40.563Z,59
2017-07-23T09:05:48.651Z,59
2017-07-23T09:06:56.953Z,59
2017-07-23T09:08:04.828Z,59
2017-07-23T09:09:12.916Z,59
2017-07-23T09:10:21.005Z,59
2017-07-23T09:11:29.093Z,59
2017-07-23T09:12:37.179Z,59
2017-07-23T09:13:45.357Z,59
2017-07-23T09:14:53.355Z,59
2017-07-23T09:16:01.440Z,59
2017-07-23T09:17:09.530Z,59
2017-07-23T09:18:17.619Z,58
2017-07-23T09:19:25.705Z,58
2017-07-23T09:20:33.794Z,59
2017-07-23T09:21:41.882Z,59
2017-07-23T09:22:49.971Z,58
2017-07-23T09:23:58.081Z,59
2017-07-23T09:25:06.144Z,59
2017-07-23T09:26:14.232Z,59
2017-07-23T09:27:22.317Z,58
2017-07-23T09:28:30.407Z,58
2017-07-23T09:29:38.493Z,59
2017-07-23T09:30:46.656Z,59
2017-07-23T09:31:54.669Z,58
2017-07-23T09:33:02.755Z,58
2017-07-23T09:34:10.843Z,58
2017-07-23T09:35:18.930Z,58
2017-07-23T09:36:27.018Z,58
2017-07-23T09:37:35.105Z,58
2017-07-23T09:38:43.195Z,58
2017-07-23T09:39:51.283Z,58
2017-07-23T09:40:59.369Z,58
2017-07-23T09:42:07.457Z,59
2017-07-23T09:43:15.543Z,58
2017-07-23T09:44:23.630Z,58
2017-07-23T09:45:31.718Z,58
2017-07-23T09:46:39.806Z,58
2017-07-23T09:47:47.943Z,58
2017-07-23T09:48:55.980Z,58
2017-07-23T09:50:04.069Z,58
2017-07-23T09:51:12.156Z,58
2017-07-23T09:52:20.244Z,58
2017-07-23T09:53:28.330Z,58
2017-07-23T09:54:36.419Z,58
2017-07-23T09:55:44.505Z,57
2017-07-23T09:56:52.594Z,57
2017-07-23T09:58:00.681Z,57
2017-07-23T09:59:08.771Z,57
2017-07-23T10:00:16.859Z,57
2017-07-23T10:01:24.945Z,57
2017-07-23T10:02:33.032Z,57
2017-07-23T10:03:41.118Z,57
2017-07-23T10:04:49.277Z,56
2017-07-23T10:05:57.299Z,57
2017-07-23T10:07:05.382Z,57
2017-07-23T10:08:13.471Z,56
2017-07-23T10:09:21.557Z,56
2017-07-23T10:10:29.650Z,57
2017-07-23T10:11:37.733Z,57
2017-07-23T10:12:45.820Z,57
2017-07-23T10:13:53.908Z,57
2017-07-23T10:15:01.996Z,57
2017-07-23T10:16:10.081Z,57
2017-07-23T10:17:18.170Z,57
2017-07-23T10:18:26.266Z,57
2017-07-23T10:19:34.352Z,57
2017-07-23T10:20:42.437Z,58
2017-07-23T10:21:50.581Z,58
2017-07-23T10:22:58.615Z,57
2017-07-23T10:24:06.701Z,57
2017-07-23T10:25:14.790Z,57
2017-07-23T10:26:22.876Z,57
2017-07-23T10:27:30.965Z,57
2017-07-23T10:28:39.052Z,57
2017-07-23T10:29:47.138Z,56
2017-07-23T10:30:55.226Z,57
2017-07-23T10:32:03.313Z,57
2017-07-23T10:33:11.401Z,56
2017-07-23T10:34:19.488Z,56
2017-07-23T10:35:27.580Z,56
2017-07-23T10:36:35.664Z,56
2017-07-23T10:37:43.749Z,56
2017-07-23T10:38:51.895Z,56
2017-07-23T10:39:59.928Z,56
2017-07-23T10:41:08.016Z,56
2017-07-23T10:42:16.102Z,56
2017-07-23T10:43:24.189Z,56
2017-07-23T10:44:32.286Z,56
2017-07-23T10:45:40.365Z,56
2017-07-23T10:46:48.455Z,56
2017-07-23T10:47:56.542Z,56
2017-07-23T10:49:04.629Z,56
2017-07-23T10:50:12.717Z,56
2017-07-23T10:51:20.817Z,56
2017-07-23T10:52:28.903Z,56
2017-07-23T10:53:36.990Z,56
2017-07-23T10:54:45.079Z,56
2017-07-23T10:55:53.198Z,56
2017-07-23T10:57:01.254Z,55
2017-07-23T10:58:09.338Z,56
2017-07-23T10:59:17.426Z,56
2017-07-23T11:00:25.513Z,56
2017-07-23T11:01:33.601Z,56
2017-07-23T11:02:41.690Z,56
2017-07-23T11:03:49.778Z,56
2017-07-23T11:04:57.866Z,55
2017-07-23T11:06:05.974Z,55
2017-07-23T11:07:14.040Z,55
2017-07-23T11:08:22.126Z,55
2017-07-23T11:09:30.213Z,55
2017-07-23T11:10:38.301Z,55
2017-07-23T11:11:46.387Z,55
2017-07-23T11:12:54.528Z,55
2017-07-23T11:14:02.562Z,55
2017-07-23T11:15:10.651Z,55
2017-07-23T11:16:18.736Z,55
2017-07-23T11:17:26.828Z,55
2017-07-23T11:18:34.909Z,55
2017-07-23T11:19:42.994Z,55
2017-07-23T11:20:51.081Z,55
2017-07-23T11:21:59.169Z,55
2017-07-23T11:23:07.256Z,55
2017-07-23T11:24:15.344Z,55
2017-07-23T11:25:23.431Z,55
2017-07-23T11:26:31.516Z,56
2017-07-23T11:27:39.603Z,56
2017-07-23T11:28:47.691Z,56
2017-07-23T11:29:55.884Z,56
2017-07-23T11:31:03.869Z,57
2017-07-23T11:32:11.955Z,57
2017-07-23T11:33:20.054Z,58
2017-07-23T11:34:28.131Z,58
2017-07-23T11:35:36.217Z,58
2017-07-23T11:36:44.313Z,58
2017-07-23T11:37:52.400Z,57
2017-07-23T11:39:00.486Z,57
2017-07-23T11:40:08.571Z,57
2017-07-23T11:41:16.659Z,57
2017-07-23T11:42:24.748Z,56
2017-07-23T11:43:32.836Z,56
2017-07-23T11:44:40.918Z,56
2017-07-23T11:45:49.007Z,57
2017-07-23T11:46:57.109Z,58
2017-07-23T11:48:05.180Z,57
2017-07-23T11:49:13.268Z,58
2017-07-23T11:50:21.354Z,57
2017-07-23T11:51:29.443Z,58
2017-07-23T11:52:37.527Z,59
2017-07-23T11:53:45.613Z,60
2017-07-23T11:54:53.700Z,60
2017-07-23T11:56:01.785Z,60
2017-07-23T11:57:09.871Z,59
2017-07-23T11:58:17.960Z,59
2017-07-23T11:59:26.045Z,60
2017-07-23T12:00:34.132Z,59
2017-07-23T12:01:42.220Z,59
2017-07-23T12:02:50.304Z,59
2017-07-23T12:03:58.468Z,59
2017-07-23T12:05:06.501Z,59
2017-07-23T12:06:14.564Z,59
2017-07-23T12:07:22.654Z,59
2017-07-23T12:08:30.739Z,59
2017-07-23T12:09:38.828Z,59
2017-07-23T12:10:46.914Z,59
2017-07-23T12:11:54.999Z,59
2017-07-23T12:13:03.086Z,60
2017-07-23T12:14:11.173Z,61
2017-07-23T12:15:19.261Z,60
2017-07-23T12:16:27.346Z,60
2017-07-23T12:17:35.436Z,60
2017-07-23T12:18:43.545Z,60
2017-07-23T12:19:51.609Z,60
2017-07-23T12:20:59.740Z,60
2017-07-23T12:22:07.782Z,60
2017-07-23T12:23:15.867Z,59
2017-07-23T12:24:23.955Z,60
2017-07-23T12:25:32.041Z,60
2017-07-23T12:26:40.129Z,60
2017-07-23T12:27:48.216Z,60
2017-07-23T12:28:56.302Z,59
2017-07-23T12:30:04.393Z,59
2017-07-23T12:31:12.481Z,59
2017-07-23T12:32:20.565Z,59
2017-07-23T12:33:28.649Z,60
2017-07-23T12:34:36.738Z,60
2017-07-23T12:35:44.826Z,60
2017-07-23T12:36:52.912Z,59
2017-07-23T12:38:01.018Z,59
2017-07-23T12:39:09.087Z,58
2017-07-23T12:40:17.174Z,58
2017-07-23T12:41:25.262Z,59
2017-07-23T12:42:33.350Z,58
2017-07-23T12:43:41.553Z,58
2017-07-23T12:44:49.522Z,58
2017-07-23T12:45:57.610Z,59
2017-07-23T12:47:05.720Z,60
2017-07-23T12:48:13.783Z,59
2017-07-23T12:49:21.869Z,59
2017-07-23T12:50:29.957Z,59
2017-07-23T12:51:38.043Z,59
2017-07-23T12:52:46.127Z,59
2017-07-23T12:53:54.239Z,59
2017-07-23T12:55:02.354Z,59
2017-07-23T12:56:10.387Z,59
2017-07-23T12:57:18.475Z,59
2017-07-23T12:58:26.684Z,60
2017-07-23T12:59:34.649Z,59
2017-07-23T13:00:42.737Z,59
2017-07-23T13:01:50.828Z,59
2017-07-23T13:02:58.911Z,59
2017-07-23T13:04:06.995Z,59
2017-07-23T13:05:15.086Z,59
2017-07-23T13:06:23.176Z,60
2017-07-23T13:07:31.260Z,59
2017-07-23T13:08:39.346Z,60
2017-07-23T13:09:47.433Z,60
2017-07-23T13:10:55.520Z,60
2017-07-23T13:12:03.610Z,59
2017-07-23T13:13:11.690Z,59
2017-07-23T13:14:19.780Z,59
2017-07-23T13:15:27.865Z,59
2017-07-23T13:16:35.952Z,59
2017-07-23T13:17:44.041Z,59
2017-07-23T13:18:52.126Z,59
2017-07-23T13:20:00.211Z,60
2017-07-23T13:21:08.300Z,59
2017-07-23T13:22:16.386Z,59
2017-07-23T13:23:24.472Z,60
2017-07-23T13:24:32.561Z,59
2017-07-23T13:25:40.649Z,59
2017-07-23T13:26:48.736Z,59
2017-07-23T13:27:56.823Z,59
2017-07-23T13:29:04.999Z,59
2017-07-23T13:30:12.996Z,60
2017-07-23T13:31:21.082Z,59
2017-07-23T13:32:29.168Z,60
2017-07-23T13:33:37.256Z,60
2017-07-23T13:34:45.344Z,61
2017-07-23T13:35:53.430Z,60
2017-07-23T13:37:01.515Z,60
2017-07-23T13:38:09.605Z,61
2017-07-23T13:39:17.690Z,61
2017-07-23T13:40:25.779Z,60
2017-07-23T13:41:33.864Z,60
2017-07-23T13:42:41.976Z,60
2017-07-23T13:43:50.037Z,60
2017-07-23T13:44:58.124Z,60
2017-07-23T13:46:06.280Z,59
2017-07-23T13:47:14.300Z,58
2017-07-23T13:48:22.388Z,58
2017-07-23T13:49:30.479Z,58
2017-07-23T13:50:38.562Z,59
2017-07-23T13:51:46.647Z,59
2017-07-23T13:52:54.734Z,59
2017-07-23T13:54:02.820Z,59
2017-07-23T13:55:10.908Z,59
2017-07-23T13:56:18.994Z,59
2017-07-23T13:57:27.081Z,58
2017-07-23T13:58:35.170Z,58
2017-07-23T13:59:43.257Z,57
2017-07-23T14:00:51.343Z,57
2017-07-23T14:01:59.427Z,56
2017-07-23T14:03:07.520Z,56
2017-07-23T14:04:15.601Z,56
2017-07-23T14:05:23.689Z,57
2017-07-23T14:06:31.777Z,58
2017-07-23T14:07:39.915Z,57
2017-07-23T14:08:47.951Z,58
2017-07-23T14:09:56.038Z,58
2017-07-23T14:11:04.124Z,58
2017-07-23T14:12:12.211Z,57
2017-07-23T14:13:20.296Z,57
2017-07-23T14:14:28.383Z,57
2017-07-23T14:15:36.470Z,57
2017-07-23T14:16:44.558Z,58
2017-07-23T14:17:52.650Z,58
2017-07-23T14:19:00.736Z,58
2017-07-23T14:20:08.912Z,58
2017-07-23T14:21:16.918Z,58
2017-07-23T14:22:25.004Z,58
2017-07-23T14:23:33.091Z,58
2017-07-23T14:24:41.184Z,58
2017-07-23T14:25:49.285Z,57
2017-07-23T14:26:57.363Z,57
2017-07-23T14:28:05.450Z,58
2017-07-23T14:29:13.536Z,58
2017-07-23T14:30:21.621Z,59
2017-07-23T14:31:29.710Z,58
2017-07-23T14:32:37.797Z,58
2017-07-23T14:33:45.886Z,59
2017-07-23T14:34:53.973Z,58
2017-07-23T14:36:02.058Z,57
2017-07-23T14:37:10.144Z,57
2017-07-23T14:38:18.229Z,57
2017-07-23T14:39:26.316Z,58
2017-07-23T14:40:34.406Z,58
2017-07-23T14:41:42.493Z,57
2017-07-23T14:42:50.579Z,57
2017-07-23T14:43:58.666Z,58
2017-07-23T14:45:06.754Z,58
2017-07-23T14:46:14.842Z,59
2017-07-23T14:47:22.925Z,59
2017-07-23T14:48:31.011Z,59
2017-07-23T14:49:39.102Z,59
2017-07-23T14:50:47.186Z,59
2017-07-23T14:51:55.274Z,59
2017-07-23T14:53:03.361Z,59
2017-07-23T14:54:11.449Z,59
2017-07-23T14:55:19.539Z,59
2017-07-23T14:56:27.625Z,59
2017-07-23T14:57:35.710Z,58
2017-07-23T14:58:43.796Z,58
2017-07-23T14:59:51.891Z,58
2017-07-23T15:00:59.979Z,58
2017-07-23T15:02:08.066Z,58
2017-07-23T15:03:16.154Z,57
2017-07-23T15:04:24.242Z,57
2017-07-23T15:05:32.326Z,58
2017-07-23T15:06:40.411Z,58
2017-07-23T15:07:48.507Z,56
2017-07-23T15:08:56.587Z,58
2017-07-23T15:10:04.674Z,57
2017-07-23T15:11:12.762Z,58
2017-07-23T15:12:20.851Z,57
2017-07-23T15:13:28.936Z,58
2017-07-23T15:14:37.021Z,58
2017-07-23T15:15:45.110Z,58
2017-07-23T15:16:53.193Z,58
2017-07-23T15:18:01.278Z,58
2017-07-23T15:19:09.368Z,58
2017-07-23T15:20:17.457Z,58
2017-07-23T15:21:25.542Z,58
2017-07-23T15:22:33.630Z,58
2017-07-23T15:23:41.718Z,58
2017-07-23T15:24:49.828Z,58
2017-07-23T15:25:57.890Z,58
2017-07-23T15:27:05.975Z,58
2017-07-23T15:28:14.061Z,58
2017-07-23T15:29:22.150Z,58
2017-07-23T15:30:30.239Z,58
2017-07-23T15:31:38.323Z,58
2017-07-23T15:32:46.410Z,58
2017-07-23T15:33:54.497Z,58
2017-07-23T15:35:02.582Z,58
2017-07-23T15:36:10.672Z,58
2017-07-23T15:37:18.758Z,58
2017-07-23T15:38:26.844Z,58
2017-07-23T15:39:34.930Z,58
2017-07-23T15:40:43.017Z,58
2017-07-23T15:41:51.105Z,58
2017-07-23T15:42:59.193Z,58
2017-07-23T15:44:07.279Z,58
2017-07-23T15:45:15.364Z,58
2017-07-23T15:46:23.450Z,58
2017-07-23T15:47:31.537Z,58
2017-07-23T15:48:39.623Z,58
2017-07-23T15:49:47.712Z,58
2017-07-23T15:50:55.798Z,58
2017-07-23T15:52:03.885Z,57
2017-07-23T15:53:11.971Z,57
2017-07-23T15:54:20.058Z,58
2017-07-23T15:55:28.145Z,57
2017-07-23T15:56:36.232Z,57
2017-07-23T15:57:44.318Z,56
2017-07-23T15:58:52.407Z,57
2017-07-23T16:00:00.494Z,57
2017-07-23T16:01:08.578Z,57
2017-07-23T16:02:16.668Z,57
2017-07-23T16:03:24.752Z,57
2017-07-23T16:04:32.846Z,57
2017-07-23T16:05:40.925Z,57
2017-07-23T16:06:49.011Z,58
2017-07-23T16:07:57.098Z,58
2017-07-23T16:09:05.184Z,58
2017-07-23T16:10:13.273Z,58
2017-07-23T16:11:21.360Z,58
2017-07-23T16:12:29.447Z,57
2017-07-23T16:13:37.535Z,57
2017-07-23T16:14:45.620Z,57